Time;durP1;ratioP1;P1;durP2;ratioP2;P2;SDS_P1;SDS_P2;PMS_P1;PMS_P2;Temp;Humidity;BMP_temperature;BMP_pressure;BME280_temperature;BME280_humidity;BME280_pressure;Samples;Min_cycle;Max_cycle;Signal;HPM_P1;HPM_P2
2023/09/25 00:00:32;;;;;;;6.40;1.70;;;;;;;;;;4977111;28;20066;-63
2023/09/25 00:03:00;;;;;;;4.28;1.30;;;;;;;;;;4977522;28;20083;-61
2023/09/25 00:05:28;;;;;;;3.45;0.90;;;;;;;;;;4978709;28;20048;-63
2023/09/25 00:07:54;;;;;;;3.45;1.20;;;;;;;;;;4973016;28;20034;-63
2023/09/25 00:10:21;;;;;;;3.10;1.00;;;;;;;;;;4978440;28;20058;-61
2023/09/25 00:12:48;;;;;;;3.33;1.15;;;;;;;;;;4979221;28;20117;-59
2023/09/25 00:15:15;;;;;;;3.20;1.10;;;;;;;;;;4978288;28;20604;-64
2023/09/25 00:17:45;;;;;;;3.75;1.13;;;;;;;;;;4976299;28;20046;-64
2023/09/25 00:20:14;;;;;;;3.53;1.33;;;;;;;;;;4992905;28;20066;-61
2023/09/25 00:22:41;;;;;;;5.93;1.42;;;;;;;;;;4978976;28;20128;-62
2023/09/25 00:25:08;;;;;;;4.45;1.13;;;;;;;;;;4979286;28;20038;-63
2023/09/25 00:27:35;;;;;;;2.72;1.05;;;;;;;;;;4978960;28;20129;-63
2023/09/25 00:30:08;;;;;;;4.10;1.48;;;;;;;;;;4979289;28;20046;-62
2023/09/25 00:32:35;;;;;;;4.80;1.23;;;;;;;;;;4979437;28;20106;-62
2023/09/25 00:35:06;;;;;;;3.55;1.38;;;;;;;;;;4978811;28;20034;-64
2023/09/25 00:37:34;;;;;;;5.65;1.40;;;;;;;;;;4975064;28;20043;-65
2023/09/25 00:40:13;;;;;;;3.83;1.70;;;;;;;;;;4976588;28;20034;-60
2023/09/25 00:42:43;;;;;;;5.18;1.50;;;;;;;;;;4976795;28;20049;-62
2023/09/25 00:45:10;;;;;;;3.55;1.20;;;;;;;;;;4978261;28;20048;-63
2023/09/25 00:47:37;;;;;;;4.88;1.40;;;;;;;;;;4977072;28;20111;-63
2023/09/25 00:50:04;;;;;;;4.35;1.33;;;;;;;;;;4978627;28;20064;-64
2023/09/25 00:52:33;;;;;;;4.03;1.50;;;;;;;;;;4976464;28;20042;-65
2023/09/25 00:55:01;;;;;;;7.40;1.55;;;;;;;;;;5009876;28;20155;-66
2023/09/25 00:57:28;;;;;;;9.07;1.83;;;;;;;;;;4975673;28;20582;-59
2023/09/25 00:59:55;;;;;;;4.10;1.50;;;;;;;;;;4979507;28;20524;-63
2023/09/25 01:02:22;;;;;;;3.72;1.58;;;;;;;;;;4980660;28;20128;-63
2023/09/25 01:04:49;;;;;;;5.03;2.25;;;;;;;;;;4985114;28;20073;-64
2023/09/25 01:07:19;;;;;;;4.03;1.70;;;;;;;;;;4978315;28;20034;-63
2023/09/25 01:10:04;;;;;;;3.40;1.40;;;;;;;;;;4973807;28;20053;-65
2023/09/25 01:12:32;;;;;;;4.03;1.60;;;;;;;;;;4973939;28;20054;-66
2023/09/25 01:14:59;;;;;;;5.00;1.73;;;;;;;;;;4964732;28;20049;-67
2023/09/25 01:17:25;;;;;;;3.92;1.58;;;;;;;;;;4977082;28;20124;-65
2023/09/25 01:19:52;;;;;;;4.07;1.60;;;;;;;;;;5007415;28;21685;-67
2023/09/25 01:22:18;;;;;;;4.35;1.50;;;;;;;;;;4977551;28;20581;-66
2023/09/25 01:24:45;;;;;;;3.80;1.40;;;;;;;;;;5008581;28;20124;-64
2023/09/25 01:27:12;;;;;;;3.47;1.33;;;;;;;;;;4979340;28;20521;-66
2023/09/25 01:29:38;;;;;;;4.70;1.40;;;;;;;;;;4976746;28;20066;-66
2023/09/25 01:32:05;;;;;;;3.75;1.67;;;;;;;;;;4979434;28;20038;-66
2023/09/25 01:34:32;;;;;;;7.40;2.10;;;;;;;;;;5002096;28;20739;-66
2023/09/25 01:36:58;;;;;;;5.03;1.67;;;;;;;;;;4981268;28;20044;-67
2023/09/25 01:39:25;;;;;;;6.00;2.08;;;;;;;;;;4978820;28;20077;-66
2023/09/25 01:41:52;;;;;;;4.43;1.60;;;;;;;;;;4992005;28;20523;-65
2023/09/25 01:44:18;;;;;;;5.60;1.88;;;;;;;;;;5019719;28;20041;-64
2023/09/25 01:46:45;;;;;;;4.93;1.80;;;;;;;;;;5019265;28;20200;-65
2023/09/25 01:49:11;;;;;;;5.20;1.90;;;;;;;;;;5017651;28;20575;-65
2023/09/25 01:51:38;;;;;;;4.60;1.80;;;;;;;;;;5018752;28;20072;-63
2023/09/25 01:54:05;;;;;;;4.60;1.88;;;;;;;;;;5018852;28;20532;-66
2023/09/25 01:56:31;;;;;;;5.43;1.88;;;;;;;;;;5019805;28;20038;-65
2023/09/25 01:58:58;;;;;;;8.63;1.95;;;;;;;;;;5016644;28;20060;-65
2023/09/25 02:01:25;;;;;;;5.85;2.00;;;;;;;;;;5018518;28;20041;-66
2023/09/25 02:03:51;;;;;;;5.57;2.08;;;;;;;;;;5020354;28;20041;-66
2023/09/25 02:06:18;;;;;;;7.60;2.20;;;;;;;;;;5017594;28;20166;-66
2023/09/25 02:08:44;;;;;;;5.53;2.28;;;;;;;;;;5017452;28;20374;-63
2023/09/25 02:11:11;;;;;;;5.05;2.13;;;;;;;;;;5019706;28;20041;-68
2023/09/25 02:13:38;;;;;;;4.53;2.20;;;;;;;;;;5014185;28;20413;-66
2023/09/25 02:16:04;;;;;;;5.88;2.05;;;;;;;;;;5016030;28;20045;-66
2023/09/25 02:18:31;;;;;;;6.10;2.33;;;;;;;;;;5011801;28;20706;-63
2023/09/25 02:20:58;;;;;;;5.28;2.28;;;;;;;;;;4979884;28;20038;-61
2023/09/25 02:23:24;;;;;;;5.00;2.03;;;;;;;;;;4977667;28;20100;-67
2023/09/25 02:25:51;;;;;;;7.18;2.20;;;;;;;;;;4980476;28;20042;-64
2023/09/25 02:28:19;;;;;;;7.50;2.30;;;;;;;;;;4995611;28;20065;-61
2023/09/25 02:30:45;;;;;;;9.40;2.40;;;;;;;;;;4977198;28;20589;-62
2023/09/25 02:33:12;;;;;;;7.50;2.60;;;;;;;;;;4979146;28;20503;-63
2023/09/25 02:35:39;;;;;;;6.57;2.40;;;;;;;;;;4992801;28;20060;-63
2023/09/25 02:38:06;;;;;;;5.32;2.40;;;;;;;;;;4979313;28;20103;-61
2023/09/25 02:40:33;;;;;;;5.53;2.30;;;;;;;;;;4975325;28;20047;-62
2023/09/25 02:43:00;;;;;;;4.32;2.13;;;;;;;;;;4979393;28;20537;-64
2023/09/25 02:45:27;;;;;;;4.45;2.03;;;;;;;;;;4978524;28;20511;-63
2023/09/25 02:47:54;;;;;;;4.95;2.28;;;;;;;;;;4978785;28;20563;-64
2023/09/25 02:50:20;;;;;;;6.82;2.35;;;;;;;;;;4978840;28;20060;-65
2023/09/25 02:52:47;;;;;;;5.55;2.42;;;;;;;;;;4978712;28;20525;-63
2023/09/25 02:55:14;;;;;;;8.23;2.50;;;;;;;;;;5008915;28;20116;-61
2023/09/25 02:57:40;;;;;;;5.38;2.67;;;;;;;;;;4974238;28;20038;-64
2023/09/25 03:00:10;;;;;;;6.40;2.70;;;;;;;;;;4979115;28;20034;-63
2023/09/25 03:02:38;;;;;;;6.57;2.10;;;;;;;;;;4995478;28;20622;-67
2023/09/25 03:05:08;;;;;;;7.07;2.13;;;;;;;;;;4981751;28;20046;-63
2023/09/25 03:07:34;;;;;;;7.03;2.42;;;;;;;;;;4994705;28;20542;-66
2023/09/25 03:10:01;;;;;;;6.07;2.42;;;;;;;;;;4980091;28;20275;-63
2023/09/25 03:12:29;;;;;;;7.35;2.70;;;;;;;;;;4978217;28;20160;-61
2023/09/25 03:14:55;;;;;;;7.10;2.58;;;;;;;;;;4978133;28;20038;-63
2023/09/25 03:17:22;;;;;;;10.77;2.85;;;;;;;;;;5012120;28;20395;-62
2023/09/25 03:19:51;;;;;;;7.47;2.90;;;;;;;;;;4979229;28;20038;-59
2023/09/25 03:22:37;;;;;;;5.57;2.22;;;;;;;;;;5014175;28;20087;-63
2023/09/25 03:25:04;;;;;;;8.73;2.55;;;;;;;;;;5030545;28;20080;-63
2023/09/25 03:27:30;;;;;;;5.78;2.70;;;;;;;;;;5014538;28;20154;-61
2023/09/25 03:29:58;;;;;;;6.47;3.03;;;;;;;;;;5015305;28;20071;-63
2023/09/25 03:32:25;;;;;;;9.07;2.97;;;;;;;;;;5031572;28;20041;-62
2023/09/25 03:34:52;;;;;;;8.50;2.50;;;;;;;;;;4998928;28;20045;-63
2023/09/25 03:37:18;;;;;;;7.72;2.50;;;;;;;;;;5026642;28;20041;-63
2023/09/25 03:39:45;;;;;;;7.72;2.45;;;;;;;;;;5025184;28;21889;-61
2023/09/25 03:42:11;;;;;;;4.78;2.22;;;;;;;;;;5025553;28;20469;-63
2023/09/25 03:44:38;;;;;;;6.07;2.78;;;;;;;;;;5038779;28;20037;-59
2023/09/25 03:47:05;;;;;;;6.28;2.45;;;;;;;;;;5022984;28;20117;-62
2023/09/25 03:49:32;;;;;;;6.97;2.40;;;;;;;;;;5022569;28;20045;-62
2023/09/25 03:51:58;;;;;;;5.78;2.35;;;;;;;;;;5026791;28;20316;-61
2023/09/25 03:54:25;;;;;;;5.90;1.88;;;;;;;;;;5001513;28;20046;-60
2023/09/25 03:56:52;;;;;;;5.07;2.35;;;;;;;;;;4994822;28;20569;-62
2023/09/25 03:59:21;;;;;;;6.95;2.40;;;;;;;;;;4994489;28;20049;-63
2023/09/25 04:01:48;;;;;;;6.95;2.30;;;;;;;;;;4995231;28;20041;-60
2023/09/25 04:04:14;;;;;;;6.15;2.33;;;;;;;;;;4993592;28;20049;-62
2023/09/25 04:06:41;;;;;;;4.35;1.95;;;;;;;;;;4994844;28;20064;-63
2023/09/25 04:09:08;;;;;;;4.13;1.77;;;;;;;;;;4993517;28;20054;-62
2023/09/25 04:11:37;;;;;;;4.72;2.00;;;;;;;;;;4995026;28;20077;-62
2023/09/25 04:14:06;;;;;;;4.38;2.03;;;;;;;;;;4980328;28;20826;-61
2023/09/25 04:16:34;;;;;;;4.40;2.08;;;;;;;;;;4992823;28;20139;-63
2023/09/25 04:19:04;;;;;;;4.88;2.40;;;;;;;;;;4975909;28;20033;-64
2023/09/25 04:21:31;;;;;;;6.53;2.40;;;;;;;;;;4991458;28;20030;-63
2023/09/25 04:24:00;;;;;;;4.60;2.20;;;;;;;;;;4976792;28;20046;-63
2023/09/25 04:26:27;;;;;;;7.00;2.55;;;;;;;;;;4994781;28;20116;-63
2023/09/25 04:28:55;;;;;;;5.43;2.10;;;;;;;;;;4975772;28;20065;-62
2023/09/25 04:31:22;;;;;;;8.07;2.40;;;;;;;;;;4976471;28;20038;-61
2023/09/25 04:33:48;;;;;;;6.53;2.30;;;;;;;;;;4986868;28;20883;-64
2023/09/25 04:36:15;;;;;;;5.50;2.20;;;;;;;;;;4994255;28;20053;-63
2023/09/25 04:38:42;;;;;;;5.00;2.10;;;;;;;;;;4978866;28;20456;-63
2023/09/25 04:41:08;;;;;;;7.70;2.38;;;;;;;;;;4979920;28;20049;-64
2023/09/25 04:43:35;;;;;;;4.90;2.10;;;;;;;;;;4977581;28;20042;-63
2023/09/25 04:46:02;;;;;;;5.38;2.40;;;;;;;;;;4983925;28;20052;-62
2023/09/25 04:48:31;;;;;;;6.53;2.28;;;;;;;;;;4975703;28;20038;-59
2023/09/25 04:50:58;;;;;;;11.63;2.63;;;;;;;;;;4992260;28;20050;-61
2023/09/25 04:53:25;;;;;;;6.43;1.98;;;;;;;;;;4975338;28;20790;-63
2023/09/25 04:55:52;;;;;;;7.68;2.28;;;;;;;;;;4976295;28;20398;-61
2023/09/25 04:58:20;;;;;;;4.18;2.00;;;;;;;;;;4978326;28;20034;-62
2023/09/25 05:00:46;;;;;;;8.95;2.15;;;;;;;;;;4974770;28;20046;-60
2023/09/25 05:03:13;;;;;;;4.80;2.25;;;;;;;;;;4976762;28;20797;-60
2023/09/25 05:05:40;;;;;;;5.80;1.92;;;;;;;;;;4975913;28;20066;-63
2023/09/25 05:08:06;;;;;;;5.63;2.20;;;;;;;;;;4979503;28;20045;-60
2023/09/25 05:10:33;;;;;;;6.07;2.47;;;;;;;;;;4995067;28;20205;-60
2023/09/25 05:13:01;;;;;;;6.68;2.35;;;;;;;;;;4995784;28;20388;-65
2023/09/25 05:15:27;;;;;;;5.80;2.45;;;;;;;;;;4979162;28;20141;-61
2023/09/25 05:17:54;;;;;;;6.45;2.28;;;;;;;;;;4994880;28;20062;-63
2023/09/25 05:20:24;;;;;;;7.65;2.65;;;;;;;;;;4993006;28;20149;-60
2023/09/25 05:22:52;;;;;;;6.93;2.33;;;;;;;;;;5002109;28;20454;-62
2023/09/25 05:25:19;;;;;;;8.32;2.40;;;;;;;;;;4981637;28;20073;-64
2023/09/25 05:27:49;;;;;;;5.53;2.42;;;;;;;;;;4994130;28;20033;-63
2023/09/25 05:30:17;;;;;;;5.88;2.30;;;;;;;;;;4979576;28;21155;-61
2023/09/25 05:32:45;;;;;;;5.43;2.33;;;;;;;;;;4980945;28;20053;-60
2023/09/25 05:35:11;;;;;;;5.38;2.13;;;;;;;;;;4981104;28;20037;-61
2023/09/25 05:37:38;;;;;;;5.95;2.25;;;;;;;;;;4978303;28;20074;-60
2023/09/25 05:40:15;;;;;;;5.75;2.55;;;;;;;;;;4980077;28;20526;-61
2023/09/25 05:42:43;;;;;;;5.65;2.33;;;;;;;;;;4978730;28;20042;-63
2023/09/25 05:45:11;;;;;;;5.88;2.17;;;;;;;;;;4981588;28;20039;-62
2023/09/25 05:47:37;;;;;;;5.47;2.03;;;;;;;;;;4979532;28;20518;-62
2023/09/25 05:50:07;;;;;;;5.65;2.35;;;;;;;;;;4995782;28;20691;-59
2023/09/25 05:52:35;;;;;;;5.15;2.15;;;;;;;;;;4981739;28;20686;-63
2023/09/25 05:55:02;;;;;;;5.75;1.90;;;;;;;;;;4981573;28;20069;-60
2023/09/25 05:57:29;;;;;;;7.78;2.25;;;;;;;;;;4980011;28;20754;-60
2023/09/25 05:59:55;;;;;;;4.60;2.05;;;;;;;;;;4982040;28;20529;-61
2023/09/25 06:02:22;;;;;;;5.57;2.03;;;;;;;;;;4982551;28;20519;-62
2023/09/25 06:04:48;;;;;;;8.95;2.30;;;;;;;;;;4978359;28;20503;-60
2023/09/25 06:07:35;;;;;;;7.90;2.17;;;;;;;;;;4990539;28;20100;-61
2023/09/25 06:10:04;;;;;;;6.18;2.42;;;;;;;;;;5000247;28;20060;-63
2023/09/25 06:12:30;;;;;;;6.72;2.28;;;;;;;;;;4982299;28;20049;-60
2023/09/25 06:14:57;;;;;;;5.10;2.47;;;;;;;;;;4999802;28;20049;-62
2023/09/25 06:17:26;;;;;;;7.28;2.83;;;;;;;;;;4998901;28;20482;-63
2023/09/25 06:19:53;;;;;;;7.53;2.70;;;;;;;;;;5000556;28;20497;-62
2023/09/25 06:22:21;;;;;;;11.85;2.80;;;;;;;;;;5000952;28;20132;-60
2023/09/25 06:24:49;;;;;;;6.32;2.80;;;;;;;;;;4997892;28;20117;-62
2023/09/25 06:27:15;;;;;;;8.52;2.60;;;;;;;;;;5002224;28;20216;-61
2023/09/25 06:29:45;;;;;;;8.98;2.97;;;;;;;;;;5002909;28;20152;-63
2023/09/25 06:32:12;;;;;;;5.30;2.78;;;;;;;;;;5011192;28;20038;-63
2023/09/25 06:34:41;;;;;;;9.80;2.75;;;;;;;;;;5009490;28;20038;-60
2023/09/25 06:37:08;;;;;;;5.82;2.42;;;;;;;;;;5004496;28;20040;-63
2023/09/25 06:39:36;;;;;;;9.15;2.45;;;;;;;;;;5017060;28;20091;-62
2023/09/25 06:42:03;;;;;;;7.80;2.58;;;;;;;;;;5001768;28;20040;-60
2023/09/25 06:44:30;;;;;;;8.02;2.65;;;;;;;;;;4997849;28;20596;-60
2023/09/25 06:46:57;;;;;;;7.63;2.55;;;;;;;;;;4979176;28;20046;-65
2023/09/25 06:49:23;;;;;;;6.00;2.70;;;;;;;;;;4977963;28;20047;-60
2023/09/25 06:51:50;;;;;;;14.23;2.85;;;;;;;;;;4978382;28;20073;-60
2023/09/25 06:54:17;;;;;;;7.55;2.50;;;;;;;;;;4993798;28;20038;-60
2023/09/25 06:56:44;;;;;;;7.40;2.58;;;;;;;;;;4978867;28;20038;-61
2023/09/25 06:59:11;;;;;;;8.95;2.70;;;;;;;;;;4978291;28;20056;-63
2023/09/25 07:01:38;;;;;;;6.03;2.70;;;;;;;;;;4978289;28;20061;-60
2023/09/25 07:04:06;;;;;;;10.93;2.65;;;;;;;;;;4977182;28;20054;-63
2023/09/25 07:06:33;;;;;;;8.02;2.50;;;;;;;;;;4986805;28;20048;-63
2023/09/25 07:09:00;;;;;;;7.47;2.33;;;;;;;;;;4992169;28;20061;-60
2023/09/25 07:11:27;;;;;;;6.15;2.20;;;;;;;;;;4979737;28;20552;-61
2023/09/25 07:13:53;;;;;;;5.75;2.53;;;;;;;;;;4977888;28;20042;-63
2023/09/25 07:16:20;;;;;;;6.82;2.47;;;;;;;;;;4968465;28;20038;-61
2023/09/25 07:18:47;;;;;;;6.00;2.60;;;;;;;;;;5001702;28;20390;-61
2023/09/25 07:21:15;;;;;;;8.82;2.83;;;;;;;;;;4990938;28;20065;-61
2023/09/25 07:23:42;;;;;;;8.52;2.60;;;;;;;;;;4978113;28;20058;-62
2023/09/25 07:26:09;;;;;;;7.15;2.25;;;;;;;;;;4978497;28;20042;-61
2023/09/25 07:28:36;;;;;;;8.48;2.45;;;;;;;;;;4975575;28;20058;-64
2023/09/25 07:31:04;;;;;;;10.77;3.00;;;;;;;;;;4992128;28;20050;-60
2023/09/25 07:33:31;;;;;;;5.30;2.28;;;;;;;;;;4977266;28;20045;-60
2023/09/25 07:35:58;;;;;;;9.43;2.30;;;;;;;;;;4977714;28;20042;-61
2023/09/25 07:38:25;;;;;;;6.32;2.50;;;;;;;;;;4972403;28;21419;-61
2023/09/25 07:40:52;;;;;;;11.02;2.83;;;;;;;;;;5009276;28;20038;-63
2023/09/25 07:43:23;;;;;;;10.52;2.70;;;;;;;;;;4976212;28;20050;-61
2023/09/25 07:45:52;;;;;;;6.82;2.60;;;;;;;;;;5000011;28;20668;-60
2023/09/25 07:48:19;;;;;;;9.13;2.47;;;;;;;;;;4978212;28;20042;-60
2023/09/25 07:50:46;;;;;;;7.05;2.80;;;;;;;;;;4978408;28;20057;-60
2023/09/25 07:53:13;;;;;;;5.57;2.92;;;;;;;;;;4976974;28;20125;-59
2023/09/25 07:55:40;;;;;;;7.25;2.30;;;;;;;;;;4976349;28;20502;-60
2023/09/25 07:58:07;;;;;;;7.40;2.90;;;;;;;;;;4978271;28;20533;-60
2023/09/25 08:00:37;;;;;;;8.93;2.75;;;;;;;;;;4977963;28;20613;-62
2023/09/25 08:03:06;;;;;;;5.18;2.50;;;;;;;;;;4978467;28;20042;-59
2023/09/25 08:05:34;;;;;;;5.18;2.20;;;;;;;;;;4977286;28;20195;-60
2023/09/25 08:08:01;;;;;;;8.18;2.40;;;;;;;;;;4977801;28;20477;-60
2023/09/25 08:10:27;;;;;;;5.15;2.35;;;;;;;;;;4977503;28;20814;-59
2023/09/25 08:12:54;;;;;;;6.07;2.30;;;;;;;;;;4977879;28;20092;-61
2023/09/25 08:15:22;;;;;;;5.95;2.90;;;;;;;;;;4977323;28;20065;-59
2023/09/25 08:17:49;;;;;;;9.63;2.35;;;;;;;;;;4976419;28;20046;-59
2023/09/25 08:20:22;;;;;;;5.05;2.50;;;;;;;;;;4977822;28;20073;-59
2023/09/25 08:22:52;;;;;;;5.70;2.80;;;;;;;;;;4978297;28;20047;-61
2023/09/25 08:25:19;;;;;;;9.40;3.08;;;;;;;;;;4979098;28;20128;-59
2023/09/25 08:27:46;;;;;;;6.80;2.90;;;;;;;;;;4978905;28;20077;-60
2023/09/25 08:30:13;;;;;;;5.43;2.42;;;;;;;;;;4977973;28;20097;-61
2023/09/25 08:32:40;;;;;;;5.28;2.33;;;;;;;;;;4976805;28;20242;-59
2023/09/25 08:35:07;;;;;;;7.05;2.67;;;;;;;;;;4978051;28;20054;-62
2023/09/25 08:37:34;;;;;;;5.53;2.47;;;;;;;;;;4977841;28;20042;-60
2023/09/25 08:40:02;;;;;;;6.20;2.55;;;;;;;;;;4977969;28;20578;-60
2023/09/25 08:42:29;;;;;;;6.95;2.50;;;;;;;;;;4976704;28;20065;-60
2023/09/25 08:44:59;;;;;;;5.70;2.50;;;;;;;;;;4977942;28;20768;-62
2023/09/25 08:47:27;;;;;;;6.38;2.53;;;;;;;;;;4977712;28;21061;-62
2023/09/25 08:49:53;;;;;;;9.43;2.63;;;;;;;;;;4978025;28;20062;-61
2023/09/25 08:52:21;;;;;;;8.20;3.13;;;;;;;;;;4979000;28;20054;-63
2023/09/25 08:54:51;;;;;;;5.80;2.58;;;;;;;;;;4978122;28;20054;-61
2023/09/25 08:57:18;;;;;;;5.57;2.60;;;;;;;;;;4978356;28;20073;-59
2023/09/25 08:59:46;;;;;;;5.85;2.70;;;;;;;;;;4978883;28;20050;-63
2023/09/25 09:02:13;;;;;;;9.93;2.80;;;;;;;;;;4979646;28;20038;-62
2023/09/25 09:04:40;;;;;;;4.85;2.75;;;;;;;;;;4978296;28;20155;-60
2023/09/25 09:07:08;;;;;;;6.85;2.92;;;;;;;;;;4978040;28;20031;-59
2023/09/25 09:09:35;;;;;;;5.47;2.40;;;;;;;;;;4977822;28;20045;-60
2023/09/25 09:12:02;;;;;;;9.57;2.80;;;;;;;;;;4978357;28;20030;-59
2023/09/25 09:14:42;;;;;;;7.20;2.72;;;;;;;;;;4977104;28;20038;-59
2023/09/25 09:17:09;;;;;;;8.48;2.60;;;;;;;;;;4975690;28;20356;-61
2023/09/25 09:19:50;;;;;;;6.32;2.55;;;;;;;;;;4976838;28;20253;-59
2023/09/25 09:22:18;;;;;;;5.50;2.42;;;;;;;;;;4976959;28;20555;-60
2023/09/25 09:24:45;;;;;;;12.25;2.85;;;;;;;;;;4975766;28;20665;-59
2023/09/25 09:27:14;;;;;;;7.20;2.80;;;;;;;;;;4977778;28;20048;-61
2023/09/25 09:29:44;;;;;;;8.25;2.80;;;;;;;;;;4976785;28;20072;-60
2023/09/25 09:32:14;;;;;;;6.28;2.75;;;;;;;;;;4977729;28;20042;-60
2023/09/25 09:34:40;;;;;;;8.10;3.03;;;;;;;;;;4977031;28;20050;-61
2023/09/25 09:37:12;;;;;;;6.65;2.67;;;;;;;;;;4975930;28;20555;-61
2023/09/25 09:39:39;;;;;;;6.85;2.80;;;;;;;;;;4976675;28;20626;-63
2023/09/25 09:42:09;;;;;;;5.68;2.80;;;;;;;;;;4977271;28;20544;-62
2023/09/25 09:44:36;;;;;;;14.73;2.97;;;;;;;;;;4972526;28;20353;-60
2023/09/25 09:47:04;;;;;;;11.10;3.33;;;;;;;;;;4990229;28;20598;-60
2023/09/25 09:49:32;;;;;;;12.70;3.08;;;;;;;;;;4976253;28;20149;-61
2023/09/25 09:52:04;;;;;;;8.52;2.85;;;;;;;;;;4975486;28;20039;-63
2023/09/25 09:54:38;;;;;;;7.53;3.20;;;;;;;;;;4968916;28;20038;-62
2023/09/25 09:57:04;;;;;;;11.05;3.22;;;;;;;;;;5006570;28;20042;-61
2023/09/25 09:59:31;;;;;;;6.40;2.80;;;;;;;;;;4984138;28;20065;-61
2023/09/25 10:01:58;;;;;;;7.72;3.30;;;;;;;;;;4997172;28;20471;-60
2023/09/25 10:04:26;;;;;;;10.35;3.28;;;;;;;;;;4979705;28;20053;-62
2023/09/25 10:06:53;;;;;;;7.55;3.05;;;;;;;;;;4980334;28;20047;-60
2023/09/25 10:09:20;;;;;;;6.78;2.90;;;;;;;;;;4978729;28;20050;-60
2023/09/25 10:11:48;;;;;;;11.52;3.28;;;;;;;;;;4979722;28;20042;-60
2023/09/25 10:14:21;;;;;;;10.02;2.95;;;;;;;;;;4980437;28;20062;-62
2023/09/25 10:16:55;;;;;;;9.77;3.00;;;;;;;;;;4986963;28;20399;-60
2023/09/25 10:19:23;;;;;;;8.65;2.70;;;;;;;;;;4979929;28;20826;-61
2023/09/25 10:22:07;;;;;;;9.70;2.80;;;;;;;;;;4981058;28;20256;-61
2023/09/25 10:24:34;;;;;;;10.05;2.97;;;;;;;;;;4979563;28;20046;-61
2023/09/25 10:27:01;;;;;;;6.07;2.60;;;;;;;;;;4982059;28;21404;-60
2023/09/25 10:29:28;;;;;;;6.57;2.78;;;;;;;;;;4981294;28;20196;-60
2023/09/25 10:31:55;;;;;;;6.93;2.85;;;;;;;;;;4980650;28;20625;-62
2023/09/25 10:34:29;;;;;;;7.15;2.80;;;;;;;;;;4978163;28;20379;-66
2023/09/25 10:36:59;;;;;;;7.32;3.10;;;;;;;;;;4979344;28;20045;-61
2023/09/25 10:39:30;;;;;;;8.10;2.65;;;;;;;;;;5010429;28;20142;-60
2023/09/25 10:41:57;;;;;;;6.32;2.47;;;;;;;;;;4979943;28;20073;-60
2023/09/25 10:44:25;;;;;;;9.82;3.00;;;;;;;;;;4975954;28;20407;-63
2023/09/25 10:46:52;;;;;;;8.52;2.80;;;;;;;;;;4980121;28;20113;-63
2023/09/25 10:49:19;;;;;;;4.95;2.60;;;;;;;;;;4979130;28;20041;-61
2023/09/25 10:51:46;;;;;;;6.88;2.60;;;;;;;;;;4977868;28;20185;-61
2023/09/25 10:54:13;;;;;;;10.07;2.70;;;;;;;;;;4979409;28;20391;-60
2023/09/25 10:56:40;;;;;;;8.93;2.92;;;;;;;;;;4978001;28;20112;-62
2023/09/25 10:59:07;;;;;;;8.07;3.05;;;;;;;;;;4979477;28;20038;-66
2023/09/25 11:01:35;;;;;;;8.35;2.50;;;;;;;;;;4979730;28;20045;-61
2023/09/25 11:04:02;;;;;;;5.55;2.50;;;;;;;;;;4978830;28;20148;-61
2023/09/25 11:06:29;;;;;;;6.03;2.85;;;;;;;;;;4978632;28;20521;-63
2023/09/25 11:09:05;;;;;;;9.73;2.88;;;;;;;;;;4983781;28;20045;-61
2023/09/25 11:11:31;;;;;;;5.88;2.72;;;;;;;;;;4985067;28;20152;-62
2023/09/25 11:14:01;;;;;;;5.70;2.83;;;;;;;;;;4988084;28;20068;-60
2023/09/25 11:16:28;;;;;;;7.20;2.60;;;;;;;;;;4981570;28;20031;-63
2023/09/25 11:19:10;;;;;;;8.48;2.80;;;;;;;;;;4981862;28;20096;-61
2023/09/25 11:21:37;;;;;;;6.90;3.25;;;;;;;;;;4979601;28;20045;-60
2023/09/25 11:24:11;;;;;;;9.52;3.35;;;;;;;;;;4995492;28;20072;-60
2023/09/25 11:26:38;;;;;;;8.15;2.95;;;;;;;;;;4978455;28;20783;-61
2023/09/25 11:29:11;;;;;;;8.95;3.20;;;;;;;;;;4980772;28;20047;-60
2023/09/25 11:31:38;;;;;;;7.82;2.97;;;;;;;;;;4980480;28;20914;-62
2023/09/25 11:34:07;;;;;;;8.13;3.25;;;;;;;;;;4980702;28;20054;-59
2023/09/25 11:36:34;;;;;;;6.78;2.83;;;;;;;;;;4978738;28;20062;-60
2023/09/25 11:39:04;;;;;;;8.32;2.72;;;;;;;;;;4976732;28;20104;-60
2023/09/25 11:41:31;;;;;;;6.90;2.97;;;;;;;;;;4978254;28;20409;-62
2023/09/25 11:44:00;;;;;;;8.57;3.08;;;;;;;;;;4979554;28;20042;-60
2023/09/25 11:46:26;;;;;;;15.25;3.15;;;;;;;;;;4977974;28;20034;-62
2023/09/25 11:48:53;;;;;;;8.23;3.20;;;;;;;;;;4977754;28;20038;-62
2023/09/25 11:51:20;;;;;;;9.93;3.20;;;;;;;;;;4977892;28;20046;-60
2023/09/25 11:53:48;;;;;;;8.15;3.22;;;;;;;;;;4976636;28;20037;-60
2023/09/25 11:56:15;;;;;;;8.13;3.70;;;;;;;;;;4977937;28;20073;-59
2023/09/25 11:58:41;;;;;;;10.30;3.67;;;;;;;;;;4978479;28;20108;-60
2023/09/25 12:01:08;;;;;;;9.38;2.92;;;;;;;;;;4977559;28;20069;-62
2023/09/25 12:03:38;;;;;;;12.60;3.58;;;;;;;;;;4976750;28;20074;-60
2023/09/25 12:06:08;;;;;;;8.45;3.45;;;;;;;;;;4977819;28;20982;-61
2023/09/25 12:08:35;;;;;;;12.25;3.28;;;;;;;;;;5008194;28;20043;-60
2023/09/25 12:11:01;;;;;;;9.00;3.00;;;;;;;;;;4978654;28;20156;-62
2023/09/25 12:13:28;;;;;;;8.95;3.33;;;;;;;;;;4978464;28;20106;-61
2023/09/25 12:15:55;;;;;;;8.98;3.35;;;;;;;;;;4976923;28;20080;-63
2023/09/25 12:18:23;;;;;;;7.00;2.85;;;;;;;;;;4992415;28;21366;-60
2023/09/25 12:20:50;;;;;;;7.55;3.10;;;;;;;;;;4977793;28;20193;-60
2023/09/25 12:23:16;;;;;;;9.38;3.10;;;;;;;;;;4978340;28;20047;-61
2023/09/25 12:25:45;;;;;;;10.20;3.15;;;;;;;;;;4977946;28;20046;-60
2023/09/25 12:28:12;;;;;;;9.07;3.45;;;;;;;;;;4978334;28;20063;-61
2023/09/25 12:30:39;;;;;;;9.75;3.75;;;;;;;;;;4976942;28;20140;-60
2023/09/25 12:33:07;;;;;;;6.70;2.95;;;;;;;;;;4978328;28;20048;-60
2023/09/25 12:35:36;;;;;;;8.35;3.10;;;;;;;;;;4977000;28;20541;-58
2023/09/25 12:38:03;;;;;;;12.63;3.95;;;;;;;;;;4979084;28;20140;-61
2023/09/25 12:40:29;;;;;;;8.88;4.00;;;;;;;;;;4976691;28;20054;-61
2023/09/25 12:42:56;;;;;;;10.43;3.80;;;;;;;;;;4979617;28;20104;-57
2023/09/25 12:45:23;;;;;;;9.57;3.38;;;;;;;;;;4977274;28;20431;-61
2023/09/25 12:47:50;;;;;;;7.22;2.75;;;;;;;;;;4984213;28;20039;-61
2023/09/25 12:50:16;;;;;;;9.27;3.35;;;;;;;;;;4977825;28;20058;-64
2023/09/25 12:52:43;;;;;;;4.95;2.80;;;;;;;;;;4977464;28;20508;-60
2023/09/25 12:55:10;;;;;;;6.18;2.88;;;;;;;;;;4977033;28;20165;-61
2023/09/25 12:57:36;;;;;;;8.52;2.95;;;;;;;;;;4977711;28;20739;-62
2023/09/25 13:00:04;;;;;;;6.93;3.05;;;;;;;;;;4978030;28;20026;-61
2023/09/25 13:02:31;;;;;;;9.85;2.92;;;;;;;;;;4977967;28;20105;-62
2023/09/25 13:04:57;;;;;;;10.18;3.05;;;;;;;;;;4977086;28;20042;-60
2023/09/25 13:07:24;;;;;;;10.88;3.08;;;;;;;;;;4977240;28;20038;-62
2023/09/25 13:09:51;;;;;;;10.18;2.88;;;;;;;;;;4979455;28;20050;-59
2023/09/25 13:12:17;;;;;;;12.07;3.20;;;;;;;;;;4977614;28;20046;-60
2023/09/25 13:14:44;;;;;;;7.47;2.90;;;;;;;;;;4976136;28;20595;-61
2023/09/25 13:17:11;;;;;;;9.13;2.83;;;;;;;;;;4979312;28;20057;-60
2023/09/25 13:19:41;;;;;;;10.63;3.72;;;;;;;;;;4979678;28;22095;-59
2023/09/25 13:22:09;;;;;;;8.82;3.10;;;;;;;;;;4980068;28;20100;-59
2023/09/25 13:24:35;;;;;;;11.63;3.92;;;;;;;;;;4977563;28;20046;-64
2023/09/25 13:27:02;;;;;;;12.77;6.20;;;;;;;;;;4978157;28;20034;-63
2023/09/25 13:29:29;;;;;;;14.90;4.05;;;;;;;;;;4978872;28;20050;-63
2023/09/25 13:31:56;;;;;;;12.25;3.97;;;;;;;;;;4982036;28;20153;-60
2023/09/25 13:34:23;;;;;;;16.35;3.90;;;;;;;;;;4980052;28;20100;-59
2023/09/25 13:36:51;;;;;;;9.90;3.03;;;;;;;;;;4980089;28;20070;-61
2023/09/25 13:39:17;;;;;;;18.92;3.85;;;;;;;;;;4978973;28;20046;-61
2023/09/25 13:41:44;;;;;;;8.00;3.35;;;;;;;;;;4979237;28;20037;-61
2023/09/25 13:44:11;;;;;;;15.82;4.00;;;;;;;;;;4994533;28;20076;-62
2023/09/25 13:46:38;;;;;;;7.57;3.40;;;;;;;;;;4979619;28;20102;-60
2023/09/25 13:49:05;;;;;;;18.10;4.18;;;;;;;;;;4980166;28;20415;-63
2023/09/25 13:51:32;;;;;;;18.17;4.47;;;;;;;;;;4980315;28;20132;-61
2023/09/25 13:53:58;;;;;;;15.45;3.90;;;;;;;;;;4979702;28;20038;-65
2023/09/25 13:56:27;;;;;;;16.30;3.83;;;;;;;;;;4979266;28;20054;-61
2023/09/25 13:58:53;;;;;;;21.38;4.03;;;;;;;;;;4980080;28;20518;-60
2023/09/25 14:01:20;;;;;;;14.15;4.55;;;;;;;;;;4978104;28;20058;-63
2023/09/25 14:03:47;;;;;;;14.70;3.53;;;;;;;;;;4979682;28;20700;-62
2023/09/25 14:06:13;;;;;;;10.27;3.47;;;;;;;;;;4979109;28;20043;-61
2023/09/25 14:08:40;;;;;;;15.57;3.85;;;;;;;;;;4978986;28;20030;-61
2023/09/25 14:11:06;;;;;;;13.73;3.78;;;;;;;;;;4980680;28;20141;-61
2023/09/25 14:13:33;;;;;;;8.80;3.70;;;;;;;;;;4979894;28;20045;-61
2023/09/25 14:16:00;;;;;;;9.77;3.38;;;;;;;;;;4979574;28;20065;-60
2023/09/25 14:18:26;;;;;;;18.08;4.38;;;;;;;;;;4978312;28;20544;-61
2023/09/25 14:20:53;;;;;;;11.55;3.90;;;;;;;;;;4979566;28;20045;-61
2023/09/25 14:23:20;;;;;;;8.60;3.28;;;;;;;;;;4979282;28;20030;-64
2023/09/25 14:25:46;;;;;;;18.52;3.78;;;;;;;;;;4977424;28;20044;-62
2023/09/25 14:28:13;;;;;;;10.55;3.58;;;;;;;;;;4987026;28;20559;-61
2023/09/25 14:30:40;;;;;;;16.63;3.97;;;;;;;;;;4994543;28;20469;-62
2023/09/25 14:33:07;;;;;;;9.40;3.05;;;;;;;;;;4979018;28;20039;-63
2023/09/25 14:35:33;;;;;;;17.45;4.10;;;;;;;;;;4987284;28;20406;-62
2023/09/25 14:38:00;;;;;;;22.08;3.97;;;;;;;;;;4993153;28;20050;-62
2023/09/25 14:40:30;;;;;;;11.35;3.50;;;;;;;;;;4979543;28;20046;-64
2023/09/25 14:42:57;;;;;;;16.90;3.47;;;;;;;;;;4979574;28;20047;-61